Flight Track Log - Related Links

Times and Time Zones

All times are in EDT time to prevent confusion due to time zone crossing. See the TYR843 flight status page for this flight to view local times or setup timezone preferences in your user account.

Time Position Orientation Groundspeed Altitude Reporting Facility
EDT Latitude Longitude Course Direction KTS MPH feet Rate Location/Type
05:39PM 47.8126 16.7275 160° South  Level Estimated
05:40PM 47.7133 16.7797 161° South  Level Estimated
05:41PM 47.6140 16.8317 161° South  Level Estimated
05:42PM 47.5146 16.8836 161° South  Level Estimated
05:43PM 47.4153 16.9352 161° South  Level Estimated
05:44PM 47.3159 16.9866 161° South  Level Estimated
05:45PM 47.2165 17.0378 161° South  Level Estimated
05:46PM 47.1171 17.0888 161° South  Level Estimated
05:47PM 47.0176 17.1397 161° South  Level Estimated
05:48PM 46.9182 17.1903 161° South  Level Estimated
05:49PM 46.8187 17.2408 161° South  Level Estimated
05:50PM 46.7192 17.2911 161° South  Level Estimated
05:51PM 46.6196 17.3412 161° South  Level Estimated
05:52PM 46.5201 17.3911 161° South  Level Estimated
05:53PM 46.4205 17.4408 161° South  Level Estimated
05:54PM 46.3209 17.4904 161° South  Level Estimated
05:55PM 46.2213 17.5397 161° South  Level Estimated
05:56PM 46.1216 17.5889 161° South  Level Estimated
05:57PM 46.0220 17.6379 161° South  Level Estimated
05:58PM 45.9223 17.6867 161° South  Level Estimated
05:59PM 45.8226 17.7354 161° South  Level Estimated
06:00PM 45.7229 17.7839 161° South  Level Estimated
06:01PM 45.6231 17.8322 161° South  Level Estimated
06:02PM 45.5233 17.8803 161° South  Level Estimated
06:03PM 45.4235 17.9283 161° South  Level Estimated
06:04PM 45.3237 17.9761 161° South  Level Estimated
06:05PM 45.2239 18.0237 161° South  Level Estimated
06:06PM 45.1241 18.0712 161° South  Level Estimated
06:07PM 45.0242 18.1185 161° South  Level Estimated
06:08PM 44.9243 18.1656 162° South  Level Estimated
06:09PM 44.8244 18.2126 162° South  Level Estimated
06:10PM 44.7245 18.2594 162° South  Level Estimated
06:11PM 44.6245 18.3060 162° South  Level Estimated
06:12PM 44.5246 18.3525 162° South  Level Estimated
06:13PM 44.4246 18.3989 162° South  Level Estimated
06:14PM 44.3246 18.4450 162° South  Level Estimated
06:15PM 44.2246 18.4910 162° South  Level Estimated
06:16PM 44.1245 18.5369 162° South  Level Estimated
06:17PM 44.0245 18.5826 162° South  Level Estimated
06:18PM 43.9244 18.6281 162° South  Level Estimated
06:19PM 43.8243 18.6735 162° South  Level Estimated
06:20PM 43.7242 18.7188 162° South  Level Estimated
06:21PM 43.6241 18.7639 162° South  Level Estimated
06:22PM 43.5239 18.8088 162° South  Level Estimated
06:23PM 43.4238 18.8536 162° South  Level Estimated
06:24PM 43.3236 18.8982 162° South  Level Estimated
06:25PM 43.2234 18.9427 162° South  Level Estimated
06:26PM 43.1232 18.9871 162° South  Level Estimated
06:27PM 43.0230 19.0313 162° South  Level Estimated
06:28PM 42.9227 19.0753 162° South  Level Estimated
06:29PM 42.8225 19.1193 162° South  Level Estimated
06:30PM 42.7222 19.1630 162° South  Level Estimated
06:31PM 42.6219 19.2067 162° South  Level Estimated
06:32PM 42.5216 19.2502 162° South  Level Estimated
06:33PM 42.4212 19.2935 162° South  Level Estimated
06:34PM 42.3209 19.3367 162° South  Level Estimated
06:35PM 42.2205 19.3798 162° South  Level Estimated
06:36PM 42.1202 19.4228 162° South  Level Estimated
06:37PM 42.0197 19.4656 162° South  Level Estimated
06:38PM 41.9193 19.5082 162° South  Level Estimated
06:39PM 41.8189 19.5508 162° South  Level Estimated
06:40PM 41.7185 19.5932 163° South  Level Estimated
06:41PM 41.6180 19.6355 163° South  Level Estimated
06:42PM 41.5175 19.6776 163° South  Level Estimated
06:43PM 41.4170 19.7196 163° South  Level Estimated
06:44PM 41.4147 19.7206 163° South  Level Estimated
06:45PM 41.4147 19.7206 North  Level Estimated
06:46PM 41.4147 19.7206 North  Level Estimated
06:47PM 41.4147 19.7206 North  Level Estimated
06:48PM 41.4147 19.7206 North  Level Estimated
06:49PM 41.4147 19.7206 North  Level Estimated
06:50PM 41.4147 19.7206 North  Level Estimated
06:51PM 41.4147 19.7206 North  Level Estimated
06:52PM 41.4147 19.7206 North  Level Estimated
06:53PM 41.4147 19.7206 North  Level Estimated
06:54PM 41.4147 19.7206 North  Level Estimated
06:55PM 41.4147 19.7206 North  Level Estimated
06:56PM 41.4147 19.7206 North  Level Estimated
06:57PM 41.4147 19.7206 North  Level Estimated
06:58PM 41.4147 19.7206 North  Level Estimated
06:59PM 41.4147 19.7206 North  Level Estimated

Login

Don't have an account? Register now (free) for customized features, flight alerts, and more!